Time;durP1;ratioP1;P1;durP2;ratioP2;P2;SDS_P1;SDS_P2;PMS_P1;PMS_P2;Temp;Humidity;BMP_temperature;BMP_pressure;BME280_temperature;BME280_humidity;BME280_pressure;Samples;Min_cycle;Max_cycle;Signal;HPM_P1;HPM_P2
2021/06/11 05:37:10;;;;;;;;;;;;;;;20.21;100.00;100099.44;5081180;28;253605;-70
2021/06/11 05:39:35;;;;;;;;;;;;;;;20.17;100.00;100097.38;5090118;28;19920;-70
2021/06/11 05:42:01;;;;;;;;;;;;;;;20.26;100.00;100098.88;5091379;28;19912;-70
2021/06/11 05:44:26;;;;;;;;;;;;;;;20.13;100.00;100104.09;5091465;28;19919;-70
2021/06/11 05:46:51;;;;;;;;;;;;;;;19.80;100.00;100100.09;5073148;28;19919;-70
2021/06/11 05:49:17;;;;;;;;;;;;;;;19.86;100.00;100093.22;5090075;28;19960;-70
2021/06/11 05:51:42;;;;;;;;;;;;;;;19.66;100.00;100102.81;5092662;28;20287;-70
2021/06/11 05:54:07;;;;;;;;;;;;;;;19.67;100.00;100102.63;5092972;28;19911;-70
2021/06/11 05:56:33;;;;;;;;;;;;;;;19.72;100.00;100096.75;5074648;28;19939;-70
2021/06/11 05:58:58;;;;;;;;;;;;;;;19.99;100.00;100098.66;5092893;28;19912;-70
2021/06/11 06:01:23;;;;;;;;;;;;;;;19.97;100.00;100099.84;5093077;28;20294;-70
2021/06/11 06:03:49;;;;;;;;;;;;;;;19.88;100.00;100095.66;5092791;28;19912;-70
2021/06/11 06:06:14;;;;;;;;;;;;;;;20.17;100.00;100097.38;5093274;28;20331;-70
2021/06/11 06:08:39;;;;;;;;;;;;;;;20.21;100.00;100102.09;5074655;28;20368;-71
2021/06/11 06:11:05;;;;;;;;;;;;;;;20.41;100.00;100107.56;5092891;28;20007;-71
2021/06/11 06:13:30;;;;;;;;;;;;;;;20.40;100.00;100105.94;5093053;28;19916;-70
2021/06/11 06:15:56;;;;;;;;;;;;;;;20.39;100.00;100114.13;5092838;28;19988;-69
2021/06/11 06:18:21;;;;;;;;;;;;;;;20.45;100.00;100114.19;5074580;28;19958;-69
2021/06/11 06:20:47;;;;;;;;;;;;;;;20.38;100.00;100110.63;5092962;28;19930;-69
2021/06/11 06:23:13;;;;;;;;;;;;;;;20.59;100.00;100115.13;5074522;28;19912;-70
2021/06/11 06:25:38;;;;;;;;;;;;;;;20.69;100.00;100122.78;5092600;28;19916;-69
2021/06/11 06:28:04;;;;;;;;;;;;;;;20.62;100.00;100116.56;5092567;28;19938;-69
2021/06/11 06:30:30;;;;;;;;;;;;;;;20.69;100.00;100110.28;5092679;28;19916;-69
2021/06/11 06:32:55;;;;;;;;;;;;;;;21.05;100.00;100111.91;5092447;28;20480;-72
2021/06/11 06:35:20;;;;;;;;;;;;;;;21.54;100.00;100118.91;5092836;28;20333;-71
2021/06/11 06:37:46;;;;;;;;;;;;;;;21.74;100.00;100105.63;5109785;28;20364;-71
2021/06/11 06:40:11;;;;;;;;;;;;;;;22.07;100.00;100099.47;5116908;28;19912;-71
2021/06/11 06:42:37;;;;;;;;;;;;;;;22.26;100.00;100105.88;5116894;28;19911;-71
2021/06/11 06:45:03;;;;;;;;;;;;;;;22.49;100.00;100100.13;5116877;28;19911;-71
2021/06/11 06:47:28;;;;;;;;;;;;;;;22.69;100.00;100100.91;5116521;28;20406;-71
2021/06/11 06:49:54;;;;;;;;;;;;;;;22.38;100.00;100110.41;5116797;28;20006;-70
2021/06/11 06:52:20;;;;;;;;;;;;;;;22.47;100.00;100116.34;5116509;28;20348;-70
2021/06/11 06:54:45;;;;;;;;;;;;;;;22.45;100.00;100114.91;5116694;28;19916;-71
2021/06/11 06:57:11;;;;;;;;;;;;;;;22.46;100.00;100113.88;5116859;28;19963;-71
2021/06/11 06:59:36;;;;;;;;;;;;;;;22.57;100.00;100108.72;5116523;28;19918;-71
2021/06/11 07:02:02;;;;;;;;;;;;;;;22.44;100.00;100107.91;5116342;28;19934;-71
2021/06/11 07:04:28;;;;;;;;;;;;;;;22.33;100.00;100110.19;5116927;28;19950;-71
2021/06/11 07:06:53;;;;;;;;;;;;;;;22.67;100.00;100113.63;5116363;28;19912;-71
2021/06/11 07:09:19;;;;;;;;;;;;;;;23.26;100.00;100112.69;5116422;28;19911;-71
2021/06/11 07:11:44;;;;;;;;;;;;;;;23.65;100.00;100105.47;5116492;28;19912;-70
2021/06/11 07:14:10;;;;;;;;;;;;;;;24.16;100.00;100101.84;5116306;28;19912;-70
2021/06/11 07:16:35;;;;;;;;;;;;;;;23.88;100.00;100104.94;5116189;28;19938;-70
2021/06/11 07:19:00;;;;;;;;;;;;;;;23.53;100.00;100097.31;5116430;28;19918;-69
2021/06/11 07:21:26;;;;;;;;;;;;;;;23.69;100.00;100097.88;5116145;28;19965;-70
2021/06/11 07:23:52;;;;;;;;;;;;;;;23.90;100.00;100092.19;5116099;28;19912;-69
2021/06/11 07:26:17;;;;;;;;;;;;;;;24.02;100.00;100097.63;5116075;28;19911;-73
2021/06/11 07:28:42;;;;;;;;;;;;;;;24.47;100.00;100092.97;5116204;28;19920;-73
2021/06/11 07:31:08;;;;;;;;;;;;;;;24.55;100.00;100094.53;5115929;28;20375;-73
2021/06/11 07:33:33;;;;;;;;;;;;;;;24.80;100.00;100090.97;5115720;28;19915;-72
2021/06/11 07:35:59;;;;;;;;;;;;;;;25.19;100.00;100093.22;5097429;28;19962;-72
2021/06/11 07:38:25;;;;;;;;;;;;;;;25.14;100.00;100087.72;5116166;28;19919;-71
2021/06/11 07:40:52;;;;;;;;;;;;;;;25.44;100.00;100087.72;5115786;28;20370;-70
2021/06/11 07:43:20;;;;;;;;;;;;;;;25.62;100.00;100086.88;5115692;28;19915;-71
2021/06/11 07:45:46;;;;;;;;;;;;;;;25.79;100.00;100078.16;5115499;28;19916;-71
2021/06/11 07:48:12;;;;;;;;;;;;;;;25.73;100.00;100076.41;5097065;28;19998;-71
2021/06/11 07:50:37;;;;;;;;;;;;;;;25.66;100.00;100066.56;5114830;28;20360;-69
2021/06/11 07:53:02;;;;;;;;;;;;;;;25.42;100.00;100079.09;5115584;28;19911;-71
2021/06/11 07:55:27;;;;;;;;;;;;;;;25.07;100.00;100078.91;5115381;28;19971;-71
2021/06/11 07:57:53;;;;;;;;;;;;;;;25.37;100.00;100076.28;5115525;28;20310;-71
2021/06/11 08:00:18;;;;;;;;;;;;;;;25.09;100.00;100079.50;5115392;28;19951;-70
2021/06/11 08:02:44;;;;;;;;;;;;;;;25.06;100.00;100079.94;5115034;28;19951;-70
2021/06/11 08:05:12;;;;;;;;;;;;;;;25.29;100.00;100084.66;5097234;28;19911;-70
2021/06/11 08:07:37;;;;;;;;;;;;;;;25.41;100.00;100080.16;5115246;28;19912;-70
2021/06/11 08:10:04;;;;;;;;;;;;;;;25.88;100.00;100068.75;5115408;28;20439;-70
2021/06/11 08:12:30;;;;;;;;;;;;;;;26.31;100.00;100064.94;5115316;28;19919;-70
2021/06/11 08:14:55;;;;;;;;;;;;;;;26.71;100.00;100072.28;5115466;28;20023;-71
2021/06/11 08:17:21;;;;;;;;;;;;;;;26.84;100.00;100067.47;5115041;28;19929;-71
2021/06/11 08:19:46;;;;;;;;;;;;;;;26.56;100.00;100072.75;5114843;28;19996;-71
2021/06/11 08:22:11;;;;;;;;;;;;;;;26.78;100.00;100067.59;5115319;28;19919;-71
2021/06/11 08:24:37;;;;;;;;;;;;;;;27.02;100.00;100066.47;5114763;28;19912;-71
2021/06/11 08:27:05;;;;;;;;;;;;;;;27.23;100.00;100065.03;5114838;28;19922;-71
2021/06/11 08:29:31;;;;;;;;;;;;;;;27.63;100.00;100064.16;5115155;28;19916;-71
2021/06/11 08:31:56;;;;;;;;;;;;;;;27.64;94.55;100068.50;5115042;28;19922;-71
2021/06/11 08:34:21;;;;;;;;;;;;;;;27.57;94.19;100061.59;5114702;28;19995;-71
2021/06/11 08:36:47;;;;;;;;;;;;;;;26.99;94.30;100061.59;5114584;28;19916;-70
2021/06/11 08:39:12;;;;;;;;;;;;;;;26.70;94.05;100062.59;5096367;28;20010;-70
2021/06/11 08:41:38;;;;;;;;;;;;;;;26.71;93.47;100061.56;5114590;28;19912;-71
2021/06/11 08:44:05;;;;;;;;;;;;;;;26.95;97.93;100048.88;5114458;28;20275;-70
2021/06/11 08:46:31;;;;;;;;;;;;;;;26.99;95.15;100050.00;5114535;28;19912;-71
2021/06/11 08:48:58;;;;;;;;;;;;;;;27.37;96.18;100052.13;5114281;28;20340;-71
2021/06/11 08:51:24;;;;;;;;;;;;;;;27.65;88.66;100045.09;5114307;28;20457;-71
2021/06/11 08:53:49;;;;;;;;;;;;;;;27.55;92.15;100043.84;5114674;28;20001;-71
2021/06/11 08:56:14;;;;;;;;;;;;;;;27.53;91.36;100051.31;5114346;28;19960;-71
2021/06/11 08:58:39;;;;;;;;;;;;;;;27.73;91.42;100041.97;5114274;28;19912;-72
2021/06/11 09:01:06;;;;;;;;;;;;;;;27.78;93.27;100042.91;5113675;28;20359;-72
2021/06/11 09:03:41;;;;;;;;;;;;;;;27.74;92.64;100046.28;5114502;28;19919;-72
2021/06/11 09:06:12;;;;;;;;;;;;;;;27.78;92.37;100040.22;5114497;28;20010;-72
2021/06/11 09:08:37;;;;;;;;;;;;;;;28.01;91.74;100047.31;5114188;28;20054;-72
2021/06/11 09:11:11;;;;;;;;;;;;;;;28.01;92.59;100043.78;5114065;28;19955;-72
2021/06/11 09:13:36;;;;;;;;;;;;;;;27.92;92.21;100035.31;5095729;28;20290;-71
2021/06/11 09:16:12;;;;;;;;;;;;;;;28.01;89.36;100039.25;5113864;28;19918;-71
2021/06/11 09:18:42;;;;;;;;;;;;;;;28.44;88.10;100040.41;5114155;28;19912;-71
2021/06/11 09:21:23;;;;;;;;;;;;;;;28.20;87.54;100033.56;5113887;28;20014;-72
2021/06/11 09:24:22;;;;;;;;;;;;;;;28.31;88.79;100035.34;5113990;28;19973;-70
2021/06/11 09:26:56;;;;;;;;;;;;;;;27.69;88.90;100024.69;5058957;28;19912;-70
2021/06/11 09:29:23;;;;;;;;;;;;;;;27.74;93.46;100013.97;5113831;28;19934;-68
2021/06/11 09:31:49;;;;;;;;;;;;;;;27.83;86.75;100006.34;5095488;28;20388;-68
2021/06/11 09:34:25;;;;;;;;;;;;;;;27.42;86.55;100002.97;5113525;28;20066;-68
2021/06/11 09:36:58;;;;;;;;;;;;;;;27.61;71.52;100001.69;5113792;28;19915;-70
2021/06/11 09:39:24;;;;;;;;;;;;;;;28.19;64.60;99995.06;5113632;28;19967;-69
2021/06/11 09:42:05;;;;;;;;;;;;;;;28.19;49.87;99999.63;5113395;28;19911;-69
2021/06/11 09:44:30;;;;;;;;;;;;;;;28.66;52.11;99991.09;5113381;28;19918;-68
2021/06/11 09:46:56;;;;;;;;;;;;;;;28.52;47.99;99981.75;5113421;28;19915;-68
2021/06/11 09:49:25;;;;;;;;;;;;;;;28.78;46.68;99990.97;5113476;28;19912;-68
2021/06/11 09:52:07;;;;;;;;;;;;;;;29.01;47.64;99979.13;5095141;28;20379;-68
2021/06/11 09:54:32;;;;;;;;;;;;;;;28.59;51.61;99983.22;5113340;28;20283;-68
2021/06/11 09:57:16;;;;;;;;;;;;;;;28.44;49.90;99980.31;5113323;28;19918;-69
2021/06/11 09:59:42;;;;;;;;;;;;;;;28.70;49.76;99976.06;5113773;28;20413;-68
2021/06/11 10:02:18;;;;;;;;;;;;;;;28.60;46.42;99975.94;5113257;28;19911;-68
2021/06/11 10:04:44;;;;;;;;;;;;;;;28.53;46.83;99978.00;5095337;28;19912;-69
2021/06/11 10:07:10;;;;;;;;;;;;;;;28.61;46.66;99980.25;5112996;28;20397;-69
2021/06/11 10:09:35;;;;;;;;;;;;;;;28.13;50.18;99981.75;5113074;28;19966;-68
2021/06/11 10:12:01;;;;;;;;;;;;;;;28.27;48.83;99985.72;5113213;28;19954;-69
2021/06/11 10:14:27;;;;;;;;;;;;;;;27.93;49.65;99975.00;5116348;28;19911;-68
2021/06/11 10:16:52;;;;;;;;;;;;;;;28.37;50.48;99980.47;5117613;28;20048;-68
2021/06/11 10:19:36;;;;;;;;;;;;;;;28.53;49.48;99983.41;5117926;28;19937;-68
2021/06/11 10:22:02;;;;;;;;;;;;;;;28.71;46.33;99985.75;5117249;28;19964;-68
2021/06/11 10:24:27;;;;;;;;;;;;;;;29.08;47.68;99974.31;5117178;28;19958;-67
2021/06/11 10:26:53;;;;;;;;;;;;;;;29.39;48.29;99973.53;5098940;28;19976;-68
2021/06/11 10:29:19;;;;;;;;;;;;;;;29.75;47.78;99976.56;5098967;28;19912;-68
2021/06/11 10:31:45;;;;;;;;;;;;;;;29.67;47.88;99974.34;5117140;28;20381;-69
2021/06/11 10:34:11;;;;;;;;;;;;;;;29.13;45.22;99971.69;5116799;28;19912;-68
2021/06/11 10:36:38;;;;;;;;;;;;;;;28.40;44.59;99961.13;5117005;28;20389;-69
2021/06/11 10:39:09;;;;;;;;;;;;;;;27.58;48.35;99959.13;5117475;28;19919;-68
2021/06/11 10:41:53;;;;;;;;;;;;;;;27.50;50.71;99963.00;5117172;28;19911;-68
2021/06/11 10:44:34;;;;;;;;;;;;;;;27.31;48.21;99967.00;5116974;28;20002;-68
2021/06/11 10:47:18;;;;;;;;;;;;;;;27.26;49.10;99958.84;5116546;28;19911;-68
2021/06/11 10:49:52;;;;;;;;;;;;;;;27.24;51.34;99963.66;5117014;28;20008;-68
2021/06/11 10:52:38;;;;;;;;;;;;;;;27.15;52.26;99962.41;5116707;28;19918;-67
2021/06/11 10:55:18;;;;;;;;;;;;;;;26.69;51.34;99980.31;5116709;28;19918;-69
2021/06/11 10:57:44;;;;;;;;;;;;;;;25.40;56.68;99998.03;5116551;28;19954;-70
2021/06/11 11:00:30;;;;;;;;;;;;;;;24.96;62.60;100010.78;5116794;28;19973;-72
2021/06/11 11:02:59;;;;;;;;;;;;;;;23.79;65.39;100001.88;5115661;28;19962;-74
2021/06/11 11:05:25;;;;;;;;;;;;;;;23.25;72.94;99993.44;5116479;28;19967;-73
2021/06/11 11:07:51;;;;;;;;;;;;;;;21.85;98.42;99994.81;5116314;28;19912;-76
2021/06/11 11:10:31;;;;;;;;;;;;;;;21.75;96.13;99983.75;5116423;28;19912;-75
2021/06/11 11:13:06;;;;;;;;;;;;;;;22.02;91.27;99980.03;5116566;28;19923;-77
2021/06/11 11:15:49;;;;;;;;;;;;;;;22.05;99.74;99970.81;5116293;28;19918;-77
2021/06/11 11:18:14;;;;;;;;;;;;;;;22.25;94.74;99966.28;5116742;28;20302;-76
2021/06/11 11:20:41;;;;;;;;;;;;;;;22.03;100.00;99962.16;5116246;28;19911;-73
2021/06/11 11:23:08;;;;;;;;;;;;;;;22.36;100.00;99962.94;5116036;28;19916;-74
2021/06/11 11:25:33;;;;;;;;;;;;;;;22.20;100.00;99958.06;5116048;28;20291;-75
2021/06/11 11:27:59;;;;;;;;;;;;;;;22.58;100.00;99955.50;5115782;28;19926;-75
2021/06/11 11:30:27;;;;;;;;;;;;;;;22.79;100.00;99948.22;5115947;28;20297;-75
2021/06/11 11:32:52;;;;;;;;;;;;;;;22.51;100.00;99951.19;5115825;28;19918;-74
2021/06/11 11:35:19;;;;;;;;;;;;;;;22.25;100.00;99955.59;5115897;28;19915;-75
2021/06/11 11:37:45;;;;;;;;;;;;;;;21.99;100.00;99951.09;5116132;28;19947;-75
2021/06/11 11:40:11;;;;;;;;;;;;;;;21.78;100.00;99962.81;5115609;28;19919;-75
2021/06/11 11:42:36;;;;;;;;;;;;;;;21.90;100.00;99985.19;5115658;28;19922;-73
2021/06/11 11:45:01;;;;;;;;;;;;;;;21.86;100.00;100033.81;5115586;28;19911;-70
2021/06/11 11:47:27;;;;;;;;;;;;;;;21.41;100.00;100071.69;5115640;28;19912;-72
2021/06/11 11:49:52;;;;;;;;;;;;;;;21.28;100.00;100082.28;5115715;28;19915;-73
2021/06/11 11:52:17;;;;;;;;;;;;;;;20.94;100.00;100099.97;5115587;28;20413;-74
2021/06/11 11:54:43;;;;;;;;;;;;;;;20.47;100.00;100112.13;5115626;28;19911;-74
2021/06/11 11:57:08;;;;;;;;;;;;;;;20.39;100.00;100124.78;5115672;28;19912;-72
2021/06/11 11:59:33;;;;;;;;;;;;;;;19.74;100.00;100134.59;5115598;28;20274;-72
2021/06/11 12:01:59;;;;;;;;;;;;;;;19.41;100.00;100120.94;5115379;28;20378;-71
2021/06/11 12:04:24;;;;;;;;;;;;;;;19.25;100.00;100111.31;5115340;28;20437;-73
2021/06/11 12:07:08;;;;;;;;;;;;;;;18.88;100.00;100105.13;5115294;28;19918;-76
2021/06/11 12:09:33;;;;;;;;;;;;;;;18.47;100.00;100094.91;5115214;28;19911;-72
2021/06/11 12:12:00;;;;;;;;;;;;;;;18.43;100.00;100112.22;5115278;28;19917;-72
2021/06/11 12:14:25;;;;;;;;;;;;;;;18.50;100.00;100097.22;5115220;28;19911;-72
2021/06/11 12:16:51;;;;;;;;;;;;;;;18.41;100.00;100085.84;5115085;28;19912;-73
2021/06/11 12:19:16;;;;;;;;;;;;;;;18.20;100.00;100085.72;5115127;28;19919;-71
2021/06/11 12:24:44;;;;;;;;;;;;;;;18.09;100.00;100084.31;5114881;28;19919;-71
2021/06/11 12:27:10;;;;;;;;;;;;;;;17.95;100.00;100087.72;5114834;28;19920;-71
2021/06/11 12:29:35;;;;;;;;;;;;;;;18.06;100.00;100105.88;5114942;28;19912;-71
2021/06/11 12:32:01;;;;;;;;;;;;;;;18.16;100.00;100106.47;5115195;28;20462;-70
2021/06/11 12:34:27;;;;;;;;;;;;;;;18.29;100.00;100126.25;5114669;28;19916;-70
2021/06/11 12:36:52;;;;;;;;;;;;;;;18.17;100.00;100131.97;5114406;28;19976;-70
2021/06/11 12:39:18;;;;;;;;;;;;;;;18.32;100.00;100131.19;5114840;28;20335;-69
2021/06/11 12:41:43;;;;;;;;;;;;;;;18.49;100.00;100143.31;5096236;28;20263;-69
2021/06/11 12:44:18;;;;;;;;;;;;;;;18.49;100.00;100137.19;5114914;28;19976;-71
2021/06/11 12:46:48;;;;;;;;;;;;;;;18.58;100.00;100147.53;5114630;28;19915;-70
2021/06/11 12:49:13;;;;;;;;;;;;;;;18.67;100.00;100150.13;5114719;28;19912;-71
2021/06/11 12:51:39;;;;;;;;;;;;;;;18.81;100.00;100159.97;5114535;28;20362;-71
2021/06/11 12:54:04;;;;;;;;;;;;;;;18.95;100.00;100156.50;5114445;28;19912;-72
2021/06/11 12:56:30;;;;;;;;;;;;;;;18.95;100.00;100164.44;5114279;28;20382;-71
2021/06/11 12:58:55;;;;;;;;;;;;;;;19.06;100.00;100165.81;5114298;28;19918;-70
2021/06/11 13:01:21;;;;;;;;;;;;;;;18.73;100.00;100168.00;5114269;28;19912;-70
2021/06/11 13:06:33;;;;;;;;;;;;;;;18.53;100.00;100189.72;5114481;28;19918;-71
2021/06/11 13:08:58;;;;;;;;;;;;;;;18.50;100.00;100187.44;5114306;28;19919;-71
2021/06/11 13:11:24;;;;;;;;;;;;;;;18.54;100.00;100188.72;5113993;28;19912;-72
2021/06/11 13:13:49;;;;;;;;;;;;;;;18.04;100.00;100171.53;5114447;28;19912;-70
2021/06/11 13:16:14;;;;;;;;;;;;;;;17.96;100.00;100173.41;5114026;28;19918;-70
2021/06/11 13:18:40;;;;;;;;;;;;;;;18.15;100.00;100181.72;5114087;28;20006;-70
2021/06/11 13:21:06;;;;;;;;;;;;;;;17.64;100.00;100189.28;5114248;28;19934;-71
2021/06/11 13:23:31;;;;;;;;;;;;;;;17.68;100.00;100177.34;5113721;28;20388;-72
2021/06/11 13:28:40;;;;;;;;;;;;;;;17.88;100.00;100174.28;5114356;28;19926;-72
2021/06/11 13:31:05;;;;;;;;;;;;;;;17.84;100.00;100168.50;5113680;28;19916;-70
2021/06/11 13:33:31;;;;;;;;;;;;;;;17.85;100.00;100174.63;5113527;28;20360;-72
2021/06/11 13:35:58;;;;;;;;;;;;;;;17.91;100.00;100163.31;5113368;28;19916;-71
2021/06/11 13:38:23;;;;;;;;;;;;;;;17.93;100.00;100161.34;5112952;28;19968;-71
2021/06/11 13:40:49;;;;;;;;;;;;;;;18.01;100.00;100161.25;5113426;28;20002;-70
2021/06/11 13:43:33;;;;;;;;;;;;;;;18.00;100.00;100142.91;5113356;28;19976;-72
2021/06/11 13:45:58;;;;;;;;;;;;;;;18.00;100.00;100141.06;5112951;28;19912;-72
2021/06/11 13:48:23;;;;;;;;;;;;;;;18.07;100.00;100128.75;5110558;28;19907;-73
2021/06/11 13:50:49;;;;;;;;;;;;;;;17.99;100.00;100126.16;5112983;28;19912;-72
2021/06/11 13:53:14;;;;;;;;;;;;;;;17.91;100.00;100115.59;5112570;28;19911;-72
2021/06/11 13:55:40;;;;;;;;;;;;;;;17.63;100.00;100110.78;5113308;28;19911;-71
2021/06/11 13:58:05;;;;;;;;;;;;;;;17.73;100.00;100120.34;5113504;28;19911;-72
2021/06/11 14:00:31;;;;;;;;;;;;;;;17.84;100.00;100107.53;5113481;28;19919;-71
2021/06/11 14:02:56;;;;;;;;;;;;;;;17.82;100.00;100103.41;5113061;28;19916;-72
2021/06/11 14:05:22;;;;;;;;;;;;;;;17.82;100.00;100098.94;5113470;28;19916;-71
2021/06/11 14:07:51;;;;;;;;;;;;;;;17.88;100.00;100097.41;5112509;28;19912;-71
2021/06/11 14:10:17;;;;;;;;;;;;;;;17.92;100.00;100093.38;5092607;28;20295;-70
2021/06/11 14:12:43;;;;;;;;;;;;;;;18.06;100.00;100089.16;5092837;28;20007;-70
2021/06/11 14:15:08;;;;;;;;;;;;;;;18.15;100.00;100078.28;5102514;28;20370;-71
2021/06/11 14:17:33;;;;;;;;;;;;;;;18.24;100.00;100075.56;5099158;28;20375;-70
2021/06/11 14:19:59;;;;;;;;;;;;;;;18.25;100.00;100067.41;5092801;28;19919;-72
2021/06/11 14:22:25;;;;;;;;;;;;;;;18.16;100.00;100066.69;5092922;28;19960;-70
2021/06/11 14:24:50;;;;;;;;;;;;;;;18.41;100.00;100066.44;5091065;28;20359;-71
2021/06/11 14:27:17;;;;;;;;;;;;;;;18.50;100.00;100052.09;5113516;28;20343;-70
2021/06/11 14:32:26;;;;;;;;;;;;;;;18.60;100.00;100046.53;5113646;28;19966;-70
2021/06/11 14:34:52;;;;;;;;;;;;;;;18.70;100.00;100035.63;5112582;28;19915;-69
2021/06/11 14:37:18;;;;;;;;;;;;;;;18.77;100.00;100033.91;5112875;28;19922;-67
2021/06/11 14:39:43;;;;;;;;;;;;;;;18.86;100.00;100027.47;5112629;28;20374;-69
2021/06/11 14:42:09;;;;;;;;;;;;;;;18.91;100.00;100017.13;5112272;28;20310;-69
2021/06/11 14:44:34;;;;;;;;;;;;;;;18.86;100.00;100011.56;5112548;28;19919;-70
2021/06/11 14:47:00;;;;;;;;;;;;;;;18.85;100.00;100020.53;5111659;28;20385;-70
2021/06/11 14:49:26;;;;;;;;;;;;;;;18.92;100.00;100017.97;5112048;28;19934;-70
2021/06/11 14:51:52;;;;;;;;;;;;;;;18.97;100.00;100015.59;5111178;28;20395;-69
2021/06/11 14:54:35;;;;;;;;;;;;;;;19.05;100.00;100018.94;5111253;28;20006;-69
2021/06/11 15:00:09;;;;;;;;;;;;;;;19.41;100.00;100020.78;5113039;28;20048;-69
2021/06/11 15:02:35;;;;;;;;;;;;;;;19.57;100.00;100019.69;5116676;28;19912;-69
2021/06/11 15:05:00;;;;;;;;;;;;;;;19.56;100.00;100024.19;5116510;28;19912;-70
2021/06/11 15:07:26;;;;;;;;;;;;;;;19.67;100.00;100022.88;5115379;28;19923;-68
2021/06/11 15:09:51;;;;;;;;;;;;;;;19.74;100.00;100026.44;5112384;28;19916;-67
2021/06/11 15:12:16;;;;;;;;;;;;;;;19.75;100.00;100027.25;5115824;28;19916;-67
2021/06/11 15:14:42;;;;;;;;;;;;;;;19.88;100.00;100026.53;5116316;28;19920;-68
2021/06/11 15:20:10;;;;;;;;;;;;;;;20.17;100.00;100038.84;5116319;28;19918;-67
2021/06/11 15:22:35;;;;;;;;;;;;;;;20.23;100.00;100046.03;5116339;28;20018;-67
2021/06/11 15:25:01;;;;;;;;;;;;;;;20.36;100.00;100056.78;5116332;28;19961;-66
2021/06/11 15:27:54;;;;;;;;;;;;;;;20.49;100.00;100061.38;5115882;28;20355;-67
2021/06/11 15:30:20;;;;;;;;;;;;;;;20.58;100.00;100070.03;5115923;28;19965;-67
2021/06/11 15:32:45;;;;;;;;;;;;;;;20.66;100.00;100080.56;5113877;28;20620;-67
2021/06/11 15:35:12;;;;;;;;;;;;;;;20.56;100.00;100080.09;5112880;28;20422;-67
2021/06/11 15:37:37;;;;;;;;;;;;;;;20.49;100.00;100078.16;5113235;28;19920;-67
2021/06/11 15:40:03;;;;;;;;;;;;;;;20.47;100.00;100071.38;5114225;28;19916;-67
2021/06/11 15:42:28;;;;;;;;;;;;;;;20.50;100.00;100071.84;5114021;28;19958;-67
2021/06/11 15:47:56;;;;;;;;;;;;;;;20.42;100.00;100071.97;5113360;28;19919;-67
2021/06/11 15:50:22;;;;;;;;;;;;;;;20.49;100.00;100067.53;5113438;28;19916;-67
2021/06/11 15:52:47;;;;;;;;;;;;;;;20.58;100.00;100070.88;5115569;28;19975;-67
2021/06/11 15:55:13;;;;;;;;;;;;;;;20.63;100.00;100059.66;5114744;28;19911;-67
2021/06/11 15:57:38;;;;;;;;;;;;;;;20.72;100.00;100064.63;5096301;28;20443;-67
2021/06/11 16:00:05;;;;;;;;;;;;;;;20.78;100.00;100065.66;5114754;28;20348;-67
2021/06/11 16:02:30;;;;;;;;;;;;;;;20.77;100.00;100056.03;5114583;28;19945;-67
2021/06/11 16:04:56;;;;;;;;;;;;;;;20.68;100.00;100052.69;5114716;28;19915;-67
2021/06/11 16:07:21;;;;;;;;;;;;;;;20.74;100.00;100056.44;5114409;28;20283;-67
2021/06/11 16:10:05;;;;;;;;;;;;;;;20.79;100.00;100050.50;5114988;28;19927;-67
2021/06/11 16:12:30;;;;;;;;;;;;;;;20.73;100.00;100052.94;5112221;28;19959;-67
2021/06/11 16:14:56;;;;;;;;;;;;;;;20.79;100.00;100051.34;5113091;28;19966;-67
2021/06/11 16:17:21;;;;;;;;;;;;;;;20.90;100.00;100055.28;5096342;28;19962;-67
2021/06/11 16:19:46;;;;;;;;;;;;;;;20.90;100.00;100050.78;5114362;28;20461;-68
2021/06/11 16:22:11;;;;;;;;;;;;;;;20.96;100.00;100057.97;5114473;28;19915;-67
2021/06/11 16:24:37;;;;;;;;;;;;;;;21.07;100.00;100047.78;5096168;28;19912;-67
2021/06/11 16:27:02;;;;;;;;;;;;;;;21.05;100.00;100053.28;5115113;28;19919;-67
2021/06/11 16:29:27;;;;;;;;;;;;;;;21.09;100.00;100053.69;5115296;28;19911;-66
2021/06/11 16:31:53;;;;;;;;;;;;;;;21.14;100.00;100059.28;5115179;28;19986;-67
2021/06/11 16:34:18;;;;;;;;;;;;;;;21.11;100.00;100065.81;5114543;28;19912;-68
2021/06/11 16:36:44;;;;;;;;;;;;;;;21.13;100.00;100062.97;5096279;28;19915;-67
2021/06/11 16:39:09;;;;;;;;;;;;;;;21.14;100.00;100054.75;5095568;28;19922;-71
2021/06/11 16:41:35;;;;;;;;;;;;;;;21.11;100.00;100060.47;5113838;28;20002;-69
2021/06/11 16:44:00;;;;;;;;;;;;;;;21.15;100.00;100064.38;5096382;28;20386;-69
2021/06/11 16:46:26;;;;;;;;;;;;;;;21.21;100.00;100073.44;5114489;28;20264;-69
2021/06/11 16:49:10;;;;;;;;;;;;;;;21.18;100.00;100072.00;5113896;28;20010;-70
2021/06/11 16:51:35;;;;;;;;;;;;;;;21.17;100.00;100083.69;5114409;28;19916;-70
2021/06/11 16:54:01;;;;;;;;;;;;;;;21.21;100.00;100089.44;5114179;28;19998;-70
2021/06/11 16:56:27;;;;;;;;;;;;;;;21.17;100.00;100090.84;5113702;28;20340;-70
2021/06/11 16:58:52;;;;;;;;;;;;;;;21.15;100.00;100090.22;5114135;28;19916;-69
2021/06/11 17:01:18;;;;;;;;;;;;;;;21.19;100.00;100094.13;5113584;28;19915;-70
2021/06/11 17:03:43;;;;;;;;;;;;;;;21.19;100.00;100094.97;5095022;28;19915;-69
2021/06/11 17:06:09;;;;;;;;;;;;;;;21.16;100.00;100102.50;5113378;28;19911;-70
2021/06/11 17:08:39;;;;;;;;;;;;;;;21.11;100.00;100108.44;5113433;28;19918;-69
2021/06/11 17:11:23;;;;;;;;;;;;;;;21.07;100.00;100109.88;5113418;28;19912;-70
2021/06/11 17:13:48;;;;;;;;;;;;;;;20.95;100.00;100109.59;5112674;28;19916;-70
2021/06/11 17:16:13;;;;;;;;;;;;;;;20.92;100.00;100106.50;5113303;28;19967;-70
2021/06/11 17:18:39;;;;;;;;;;;;;;;20.88;100.00;100102.59;5094911;28;19915;-70
2021/06/11 17:21:05;;;;;;;;;;;;;;;20.90;100.00;100101.38;5113057;28;19911;-69
2021/06/11 17:23:31;;;;;;;;;;;;;;;20.83;100.00;100108.50;5113165;28;20045;-69
2021/06/11 17:26:15;;;;;;;;;;;;;;;20.78;100.00;100116.25;5113021;28;20022;-70
2021/06/11 17:28:41;;;;;;;;;;;;;;;20.75;100.00;100116.66;5112043;28;19920;-70
2021/06/11 17:31:06;;;;;;;;;;;;;;;20.77;100.00;100116.47;5112680;28;20031;-70
2021/06/11 17:33:32;;;;;;;;;;;;;;;20.82;100.00;100120.16;5112663;28;19985;-69
2021/06/11 17:35:59;;;;;;;;;;;;;;;20.85;100.00;100124.28;5112888;28;20010;-69
2021/06/11 17:38:25;;;;;;;;;;;;;;;20.75;100.00;100127.28;5113153;28;19919;-70
2021/06/11 17:40:51;;;;;;;;;;;;;;;20.66;100.00;100120.50;5112912;28;20298;-69
2021/06/11 17:43:20;;;;;;;;;;;;;;;20.56;100.00;100123.50;5112664;28;20374;-69
2021/06/11 17:45:46;;;;;;;;;;;;;;;20.57;100.00;100127.81;5110027;28;20283;-69
2021/06/11 17:48:11;;;;;;;;;;;;;;;20.58;100.00;100124.09;5113062;28;19922;-70
2021/06/11 17:50:39;;;;;;;;;;;;;;;20.52;100.00;100131.06;5112532;28;19922;-69
2021/06/11 17:53:04;;;;;;;;;;;;;;;20.43;100.00;100128.69;5112589;28;20002;-70
2021/06/11 17:55:39;;;;;;;;;;;;;;;20.44;100.00;100128.47;5112571;28;20358;-69
2021/06/11 17:58:05;;;;;;;;;;;;;;;20.31;100.00;100123.06;5113536;28;19976;-69
2021/06/11 18:00:31;;;;;;;;;;;;;;;20.24;100.00;100133.66;5112534;28;19915;-69
2021/06/11 18:03:15;;;;;;;;;;;;;;;20.25;100.00;100134.50;5112608;28;19934;-69
2021/06/11 18:05:54;;;;;;;;;;;;;;;20.30;100.00;100142.72;5111736;28;19915;-69
2021/06/11 18:08:21;;;;;;;;;;;;;;;20.03;100.00;100142.47;5113229;28;19912;-69
2021/06/11 18:10:46;;;;;;;;;;;;;;;19.84;100.00;100134.28;5094943;28;20002;-69
2021/06/11 18:13:12;;;;;;;;;;;;;;;19.70;100.00;100141.31;5113397;28;20409;-69
2021/06/11 18:15:37;;;;;;;;;;;;;;;19.43;100.00;100140.97;5113438;28;19911;-69
2021/06/11 18:18:02;;;;;;;;;;;;;;;19.23;100.00;100140.72;5112270;28;20295;-70
2021/06/11 18:20:28;;;;;;;;;;;;;;;19.13;100.00;100147.31;5112617;28;20286;-70
2021/06/11 18:22:54;;;;;;;;;;;;;;;19.10;100.00;100152.00;5112373;28;20370;-69
2021/06/11 18:25:24;;;;;;;;;;;;;;;19.01;100.00;100150.44;5113008;28;19918;-69
2021/06/11 18:27:50;;;;;;;;;;;;;;;18.86;100.00;100144.31;5094619;28;19952;-69